Tollesbury, United Kingdom
Current Conditions -  °F | °C
As of 11:50 AM on Sunday 21 Dec 2014 (Local Time) from EGMC Reporting Station
Broken Clouds Broken Clouds  
Wind Chill: 42°   Ceiling: 3400
Heat Index: 48°   Visibility: 6mi
Dew Point: 39°   Wind: 15mph
Humidity: 71%   Direction: 240°WSW
Pressure: 30.3"   Gusts: 26mph
Location:  51.76°N, 0.83°E
Report Text: EGMC 211150Z 24013G23KT 9999 FEW026 BKN034 09/04 Q1026
Loading
Personal Weather Stations






























Interactive Weather Map New forecast layout! Learn more

10-Day Weather Forecast

Advertisements
Track Severe Weather on mobile